logo
Games tagged Emotional
# Game Release date
Price
Score rank
(Userscore / Metascore)
Owners
Players
Playtime (Median)
Developer(s)
Publisher(s)
1 Brothers - A Tale of Two Sons Sep 3, 2013 $14.99N/A (N/A/90%)1,000,000 .. 2,000,0000%00:00 (00:00)Starbreeze Studios AB505 Games
2 Ori and the Will of the Wisps Mar 10, 2020 $23.99N/A (N/A/89%)500,000 .. 1,000,0000%00:00 (00:00)Moon Studios GmbHXbox Game Studios
3 Gone Home Aug 15, 2013 $14.99N/A (N/A/86%)500,000 .. 1,000,0003.57%02:14 (00:44)FullbrightFullbright
4 Rakuen May 10, 2017 $9.99N/A (N/A/84%)100,000 .. 200,0000%00:00 (00:00)Laura ShigiharaLaura Shigihara
5 Eliza Aug 12, 2019 $14.99N/A (N/A/84%)20,000 .. 50,0000%00:00 (00:00)ZachtronicsZachtronics
6 Beyond Good and Evil May 13, 2008 $9.99N/A (N/A/83%)200,000 .. 500,0000%00:00 (00:00)UbisoftUbisoft
7 CLANNAD Nov 23, 2015 $44.99N/A (N/A/83%)50,000 .. 100,0000%00:00 (00:00)VisualArts/KeySekai Project
8 Wandersong Sep 27, 2018 $19.99N/A (N/A/82%)50,000 .. 100,0000%00:00 (00:00)Greg LobanovGreg Lobanov
9 The Walking Dead Apr 24, 2012 $14.99N/A (N/A/82%)2,000,000 .. 5,000,0000.58%13:46 (04:35)Telltale GamesSkybound Games
10 Finding Paradise Dec 14, 2017 $9.99N/A (N/A/81%)200,000 .. 500,0000%00:00 (00:00)Freebird GamesFreebird Games
11 Nelly Cootalot: The Fowl Fleet Mar 22, 2016 $19.99N/A (N/A/81%)20,000 .. 50,000NAN%00:00 (00:00)Alasdair Beckett-King, Application Systems HeidelbergApplication Systems Heidelberg
12 The Cat Lady Dec 4, 2013 $9.99N/A (N/A/81%)100,000 .. 200,0000%00:00 (00:00)Harvester GamesScreen 7
13 To the Moon Nov 1, 2011 $9.99N/A (N/A/81%)1,000,000 .. 2,000,0001.45%04:11 (01:23)Freebird GamesFreebird Games
14 A Plague Tale: Innocence May 14, 2019 $44.99N/A (N/A/81%)500,000 .. 1,000,0006.25%00:23 (00:07)Asobo StudioFocus Home Interactive
15 The Walking Dead: Season Two Dec 17, 2013 $14.99N/A (N/A/80%)1,000,000 .. 2,000,0000%00:00 (00:00)Telltale GamesSkybound Games
16 That Dragon, Cancer Jan 11, 2016 $9.99N/A (N/A/78%)50,000 .. 100,000NAN%00:00 (00:00)Numinous GamesNuminous Games
17 Still There Nov 20, 2019 $14.99N/A (N/A/77%)0 .. 20,0000%00:00 (00:00)GhostSharkIceberg Interactive
18 The Stillness of the Wind Feb 7, 2019 $12.99N/A (N/A/76%)0 .. 20,0000%00:00 (00:00)Memory of God / Lambic StudiosFellow Traveller
19 Neo Cab Oct 3, 2019 $14.99N/A (N/A/76%)20,000 .. 50,0000%00:00 (00:00)Chance AgencyFellow Traveller
20 DISTRAINT: Deluxe Edition Oct 21, 2015 $4.99N/A (N/A/76%)2,000,000 .. 5,000,0001.4%01:34 (01:33)Jesse MakkonenJesse Makkonen
21 Spec Ops: The Line Jun 25, 2012 $29.99N/A (N/A/76%)1,000,000 .. 2,000,0000.44%06:06 (02:02)YAGER2K, Missing Link Games
22 Coffee Talk Jan 29, 2020 $12.99N/A (N/A/75%)20,000 .. 50,0000%00:00 (00:00)Toge ProductionsToge Productions
23 Through the Darkest of Times Jan 30, 2020 $14.99N/A (N/A/71%)0 .. 20,000NAN%00:00 (00:00)Paintbucket GamesHandyGames
24 Papo & Yo Apr 18, 2013 $14.99N/A (N/A/70%)200,000 .. 500,0000%00:00 (00:00)Minority Media Inc.Minority Media
25 Shelter Aug 28, 2013 $9.99N/A (N/A/69%)200,000 .. 500,0005.26%02:18 (00:46)Might and DelightMight and Delight
26 In Between Aug 21, 2015 $11.99N/A (N/A/68%)50,000 .. 100,0000%00:00 (00:00)GentlymadHeadup Games
27 Rainswept Feb 1, 2019 $11.99N/A (N/A/67%)0 .. 20,000NAN%00:00 (00:00)Frostwood InteractiveFrostwood Interactive
28 Another Sight - Definitive Edition Sep 6, 2018 $19.99N/A (N/A/67%)0 .. 20,000NAN%00:00 (00:00)Lunar Great Wall StudiosFish Eagle
29 A Bird Story Nov 7, 2014 $3.99N/A (N/A/66%)200,000 .. 500,0000%00:00 (00:00)Freebird GamesFreebird Games
30 Silence of the Sleep Oct 1, 2014 $4.99N/A (N/A/66%)50,000 .. 100,0000%00:00 (00:00)Jesse MakkonenJesse Makkonen
31 メモリーズオフ-Innocent Fille- for Dearest Apr 29, 2020 $39.99N/A (N/A)0 .. 20,000NAN%00:00 (00:00)MAGES. Inc.Spike Chunsoft Co., Ltd.
32 Weakless Mar 4, 2020 $14.99N/A (N/A)0 .. 20,000NAN%00:00 (00:00)Punk NotionAnother Road
33 Timpu's treasure Apr 24, 2020 $3.99N/A (N/A)0 .. 20,000NAN%00:00 (00:00)Siddharth SivaramanSiddharth Sivaraman
34 The Last Sky Feb 28, 2020 $6.99N/A (N/A)0 .. 20,000NAN%00:00 (00:00)Little Guy GamesLittle Guy Games
35 Heal Apr 10, 2020 $5.59N/A (N/A)0 .. 20,000NAN%00:00 (00:00)Jesse MakkonenJesse Makkonen
36 随风而逝/Story About Times Feb 25, 2020 $4.99N/A (N/A)0 .. 20,000NAN%00:00 (00:00)cdhy interactivecdhy interactive
37 Wanderlust: Transsiberian Apr 9, 2020 $4.99N/A (N/A)0 .. 20,000NAN%00:00 (00:00)Different TalesWalkabout
38 Porsche Hall of Legends VR Feb 24, 2020 FreeN/A (N/A)0 .. 20,000NAN%00:00 (00:00)United Digital Group GmbH, Nerdindustries GmbHDr. Ing. h.c.F. Porsche AG
39 メモリーズオフ-Innocent Fille- Apr 1, 2020 $39.99N/A (N/A)0 .. 20,000NAN%00:00 (00:00)MAGES. Inc.Spike Chunsoft Co., Ltd.
40 LilyDeux - Black Lily Warning Feb 22, 2020 $19.99N/A (N/A)0 .. 20,000NAN%00:00 (00:00)disfactdisfact
41 Eternal Liiivie Mar 24, 2020 $5.99N/A (N/A)0 .. 20,000NAN%00:00 (00:00)梅果子Plumko, 純白花園WeissGarden純白花園WeissGarden
42 Evergreen Blues Feb 20, 2020 FreeN/A (N/A)0 .. 20,000NAN%00:00 (00:00)David Su, Dominique StarMIT Media Lab
43 Caffeine: Victoria's Legacy Mar 20, 2020 $15.99N/A (N/A)0 .. 20,000NAN%00:00 (00:00)Kikai DigitalKikai Digital
44 Sakuya Izayoi Gives You Advice And Dabs Feb 10, 2020 $0.99N/A (N/A)0 .. 20,000NAN%00:00 (00:00)Sigyaad TeamSigyaad Team
45 Half Past Fate Mar 12, 2020 $19.99N/A (N/A)0 .. 20,000NAN%00:00 (00:00)Serenity ForgeWay Down Deep
46 Dead Dreams Feb 6, 2020 $7.99N/A (N/A)0 .. 20,000NAN%00:00 (00:00)Aiaz MarxAiaz Marx
47 The Window Box Feb 19, 2019 $12.99N/A (N/A)0 .. 20,000NAN%00:00 (00:00)Sundew StudiosSundew Studios
48 The Psychiatrist: Major Depression May 3, 2019 $5.99N/A (N/A)0 .. 20,000NAN%00:00 (00:00)Demir LeylekDemir Leylek
49 The Color of the Roses Mar 27, 2019 $7.99N/A (N/A)0 .. 20,000NAN%00:00 (00:00)LUCKY OWLLUCKY OWL
50 Newfound Courage Mar 22, 2019 $8.99N/A (N/A)0 .. 20,000NAN%00:00 (00:00)Cafe EmptyCafe Empty
51 Tales of Ancient Nights Jan 29, 2019 $1.99N/A (N/A)0 .. 20,000NAN%00:00 (00:00)Demir LeylekDemir Leylek
52 Zero One / 杀戮世界 Mar 21, 2019 $1.99N/A (N/A)0 .. 20,000NAN%00:00 (00:00)Studio ShoutarouPujia8 Studio
53 She and the Light Bearer Jan 17, 2019 $9.99N/A (N/A)0 .. 20,000NAN%00:00 (00:00)Mojiken StudioToge Productions
54 Frigus İnferos Mar 15, 2019 $1.99N/A (N/A)0 .. 20,000NAN%00:00 (00:00)Vıngbelz GamesVıngbelz Games
55 Shan Gui II: Sweet Osmanthus II Dec 16, 2018 $2.99N/A (N/A)0 .. 20,0000%00:00 (00:00)Magenta FactoryMagenta Factory
56 Fragile Fighter Mar 1, 2019 $4.99N/A (N/A)0 .. 20,000NAN%00:00 (00:00)Marina HovaHova LLC
57 Bundle Kitt Dec 10, 2018 FreeN/A (N/A)0 .. 20,000NAN%00:00 (00:00)James Earl Cox IIIJames Earl Cox III
58 When the Darkness comes Mar 1, 2019 FreeN/A (N/A)200,000 .. 500,0000%00:00 (00:00)SirhaianSirhaian
59 DISTRAINT 2 Nov 13, 2018 $8.99N/A (N/A)20,000 .. 50,0000%00:00 (00:00)Jesse MakkonenJesse Makkonen
60 Dream Rose Feb 10, 2019 $4.99N/A (N/A)0 .. 20,000NAN%00:00 (00:00)SupremePsychoFlux Entertainment
61 Temporality Oct 7, 2014 FreeN/A (N/A)0 .. 20,000NAN%00:00 (00:00)James Earl Cox IIIJames Earl Cox III
62 Trials of Guinevere Dec 31, 2019 $8.99N/A (N/A)0 .. 20,000NAN%00:00 (00:00)TD GamesTD Games
63 Summer Pockets Feb 5, 2020 $44.99N/A (N/A)0 .. 20,0000%00:00 (00:00)VisualArts/KeyVisualArts
64 Schrodinger's cat simulator - PT Dec 29, 2019 FreeN/A (N/A)0 .. 20,000NAN%00:00 (00:00)Alon Zubina Alon Zubina
65 Metal Unit Feb 3, 2020 $14.99N/A (N/A)0 .. 20,000NAN%00:00 (00:00)JellySnow StudioNEOWIZ
66 Colossals Dec 26, 2019 $9.99N/A (N/A)0 .. 20,000NAN%00:00 (00:00)Isaac BirchmierIf the clouds are full of rain, they empty themselves upon the earth, LLC
67 Bokuten - Why I Became an Angel Dec 19, 2019 $44.99N/A (N/A)0 .. 20,000NAN%00:00 (00:00)OVERDRIVEMangaGamer
68 Memody: Sindrel Song Dec 6, 2019 $9.99N/A (N/A)0 .. 20,000NAN%00:00 (00:00)Tobias CornwallTobias Cornwall
69 A Space For The Unbound - Prologue Jan 22, 2020 FreeN/A (N/A)0 .. 20,0000%00:00 (00:00)Mojiken StudioToge Productions
70 OrdinaryFamily Nov 30, 2019 $0.99N/A (N/A)0 .. 20,000NAN%00:00 (00:00)飞鸟飞鸟
71 Kili's treasure Jan 20, 2020 $1.99N/A (N/A)0 .. 20,000NAN%00:00 (00:00)Siddharth SivaramanSiddharth Sivaraman
72 Revenant March Jan 17, 2020 $4.99N/A (N/A)0 .. 20,000NAN%00:00 (00:00)Strandline GamesStrandline Games
73 Nijowari: Where Angels Fall Nov 19, 2019 $14.99N/A (N/A)0 .. 20,000NAN%00:00 (00:00)Tsukiakari Studios, Motley CrewTsukiakari Studios
74 Areia: Pathway to Dawn Jan 17, 2020 $9.99N/A (N/A)0 .. 20,000NAN%00:00 (00:00)Gilp StudioGilp Studio
75 EnviroGolf Jan 15, 2014 FreeN/A (N/A)0 .. 20,000NAN%00:00 (00:00)Seemingly PointlessSeemingly Pointless
76 Rage in Peace Nov 8, 2018 $12.99N/A (N/A)0 .. 20,000NAN%00:00 (00:00)Rolling Glory JamToge Productions, Another Indie
77 TREE Aug 13, 2018 FreeN/A (N/A)100,000 .. 200,000NAN%00:00 (00:00)The StrangersThe Strangers
78 Pit of Evil Oct 26, 2018 FreeN/A (N/A)0 .. 20,000NAN%00:00 (00:00)FrogmouthFrogmouth
79 Return. Aug 3, 2018 FreeN/A (N/A)50,000 .. 100,000NAN%00:00 (00:00)PsychoFlux Entertainment
80 Fallstreak Oct 19, 2018 FreeN/A (N/A)0 .. 20,000NAN%00:00 (00:00)Centicerise ProductionsCenticerise Productions
81 The Seven Stages Jul 24, 2018 $6.99N/A (N/A)0 .. 20,000NAN%00:00 (00:00)Weston Bell-GeddesSilver Side Studios
82 Mind Labyrinth VR Dreams Oct 14, 2018 $24.99N/A (N/A)0 .. 20,000NAN%00:00 (00:00)Frost Earth StudioOXYGENE MEDIA
83 Summer Memory of Bell Jul 23, 2018 $2.99N/A (N/A)0 .. 20,000NAN%00:00 (00:00)忆夏之铃制作组忆夏之铃制作组
84 The MISSING: J.J. Macfield and the Island of Memories Oct 11, 2018 $29.99N/A (N/A)0 .. 20,000NAN%00:00 (00:00)White Owls Inc.Arc System Works
85 Order No. 227: Not one step back! Jul 3, 2018 $4.99N/A (N/A)0 .. 20,000NAN%00:00 (00:00)High WideGarage Games
86 Save One More May 30, 2018 $0.99N/A (N/A)0 .. 20,0000%00:00 (00:00)Stas ShostakStas Shostak
87 Long Gone Days Mar 28, 2018 $14.99N/A (N/A)0 .. 20,000NAN%00:00 (00:00)BURABURA
88 Kokorogawari Aug 30, 2018 $18.99N/A (N/A)0 .. 20,000NAN%00:00 (00:00)PrecatioPrecatio
89 Gachimuchi Reloaded Feb 14, 2018 $0.99N/A (N/A)0 .. 20,000NAN%00:00 (00:00)VolhaVolha
90 Evergarden Aug 16, 2018 $9.99N/A (N/A)0 .. 20,0000%00:00 (00:00)Flippfly LLCFlippfly LLC
91 3 Blind Mice: A Remediation Game for Improper Children Jul 21, 2013 FreeN/A (N/A)0 .. 20,000NAN%00:00 (00:00)James Earl Cox IIIJames Earl Cox III
92 When The Past Was Around - Prologue Nov 4, 2019 FreeN/A (N/A)0 .. 20,0000%00:00 (00:00)Mojiken StudioToge Productions
93 Spin Rhythm XD Oct 22, 2019 $19.99N/A (N/A)20,000 .. 50,0000%00:00 (00:00)Super Spin DigitalSuper Spin Digital
94 Football Game Feb 13, 2018 $1.99N/A (N/A)20,000 .. 50,000NAN%00:00 (00:00)Cloak and Dagger GamesCloak and Dagger Games
95 it's always monday Nov 22, 2016 $1.99N/A (N/A)100,000 .. 200,0002.56%00:01 (00:00)Alon ZubinaAlon Zubina
96 East 73: Magenta Fairytale Apr 17, 2011 $0.99N/A (N/A)0 .. 20,0000%00:00 (00:00)Magenta FactoryMagenta Factory
97 A Date in the Park Jul 19, 2016 FreeN/A (N/A)100,000 .. 200,0000%00:00 (00:00)Cloak and Dagger GamesCloak and Dagger Games
98 CRONEWORLD RPG ADVENTURE - 1 Dec 4, 2017 $2.99N/A (N/A)0 .. 20,000NAN%00:00 (00:00)STREETCAT STUDIOSTREETCAT STUDIO
99 Narcissu 10th Anniversary Anthology Project Jan 27, 2016 $2.99N/A (N/A)50,000 .. 100,00016.67%163:15 (54:25)stage-nanaSekai Project
100 Yi and the Thousand Moons Nov 24, 2017 $2.99N/A (N/A)0 .. 20,000NAN%00:00 (00:00)David SuDavid Su
101 Gachimuchi Nov 13, 2017 $0.99N/A (N/A)0 .. 20,000NAN%00:00 (00:00)VolhaVolha
102 Legend of Hand Sep 27, 2017 $6.99N/A (N/A)0 .. 20,000NAN%00:00 (00:00)Cloak and Dagger GamesCloak and Dagger Games
103 The Beginner's Guide Oct 1, 2015 $9.99N/A (N/A)200,000 .. 500,0000%00:00 (00:00)Everything Unlimited Ltd.Everything Unlimited Ltd.
104 Bai Qu: Hundreds of Melodies Jul 27, 2017 $9.99N/A (N/A)0 .. 20,0000%00:00 (00:00)Magenta FactoryMagenta Factory
105 Ame no Marginal -Rain Marginal- Jul 7, 2015 $12.99N/A (N/A)50,000 .. 100,0000%00:00 (00:00)stage-nanaSekai Project
106 Narcissu 1st & 2nd Apr 24, 2015 FreeN/A (N/A)200,000 .. 500,0000%00:00 (00:00)stage-nanaSekai Project
107 9.03m Nov 20, 2013 FreeN/A (N/A)20,000 .. 50,0000%00:00 (00:00)Space BudgieSpace Budgie
108 planetarian ~the reverie of a little planet~ Sep 12, 2014 $9.99N/A (N/A)20,000 .. 50,0000%00:00 (00:00)VisualArts/KeySekai Project
109 Depression Quest Aug 11, 2014 FreeN/A (N/A)200,000 .. 500,0000%00:00 (00:00)The Quinnspiracy, Patrick Lindsey, Isaac SchanklerThe Quinnspiracy
110 Valiant Hearts: The Great War / Soldats Inconnus : Mémoires de la Grande Guerre Jun 25, 2014 $14.99N/A (N/A)200,000 .. 500,0000%00:00 (00:00)Ubisoft MontpellierUbisoft
111 An Occurrence at Owl Creek Bridge Feb 12, 2013 FreeN/A (N/A)0 .. 20,000NAN%00:00 (00:00)James Earl Cox IIIJames Earl Cox III
112 The Plan Feb 14, 2014 FreeN/A (N/A)500,000 .. 1,000,0000%00:00 (00:00)Krillbite StudioKrillbite Studio
113 Monsters of Little Haven Jul 9, 2019 FreeN/A (N/A)0 .. 20,000NAN%00:00 (00:00)Nikita Kaf ProductionsNikita Kaf Productions
114 Life Tastes Like Cardboard Sep 22, 2019 FreeN/A (N/A)0 .. 20,000NAN%00:00 (00:00)DemensaDemensa
115 FOCUS on YOU Jul 5, 2019 $39.99N/A (N/A)0 .. 20,000NAN%00:00 (00:00)Smilegate EntertainmentSmilegate Entertainment
116 Jenny LeClue - Detectivu Sep 19, 2019 $19.99N/A (N/A)0 .. 20,000NAN%00:00 (00:00)MografiMografi
117 Call of Fries Jun 10, 2019 $3.99N/A (N/A)0 .. 20,000NAN%00:00 (00:00)Anatoliy LoginovskikhAnatoliy Loginovskikh
118 Kind Words (lo fi chill beats to write to) Sep 12, 2019 $4.99N/A (N/A)50,000 .. 100,0000%00:00 (00:00)PopcannibalPopcannibal
119 Sanator: Scarlet Scarf Jun 6, 2019 $4.49N/A (N/A)0 .. 20,000NAN%00:00 (00:00)Ignis SanatIgnis Sanat
120 Little Brother Jim Sep 6, 2019 $5.99N/A (N/A)0 .. 20,000NAN%00:00 (00:00)Tonguç BodurTonguç Bodur
121 Beyond the Stars VR Jun 4, 2019 FreeN/A (N/A)0 .. 20,000NAN%00:00 (00:00)S1T2S1T2
122 Answer Knot May 31, 2019 FreeN/A (N/A)20,000 .. 50,000NAN%00:00 (00:00)Naraven GamesNaraven Games
123 All That Remains: A story about a child's future Aug 1, 2019 $2.99N/A (N/A)0 .. 20,000NAN%00:00 (00:00)DeadByteDeadByte Germany
124 Esper - Make You Live Again May 31, 2019 $7.99N/A (N/A)0 .. 20,000NAN%00:00 (00:00)StoigamesStoigames
125 From Head to Toe Jul 19, 2019 FreeN/A (N/A)0 .. 20,000NAN%00:00 (00:00)Party for IntrovertsParty for Introverts
126 missed messages. May 20, 2019 FreeN/A (N/A)200,000 .. 500,000NAN%00:00 (00:00)Angela HeAngela He
127 AvoCuddle Jul 12, 2019 $9.99N/A (N/A)0 .. 20,000NAN%00:00 (00:00)Ramez Al TabbaaFistikTech
128 A.I-Mnemosyne 記憶女神 May 31, 2020 $1.79N/A (N/A)0 .. 20,000NAN%00:00 (00:00)純白花園WeissGarden, 梅果子Plumko純白花園WeissGarden
129 Dear Devere May 29, 2020 FreeN/A (N/A)0 .. 20,000NAN%00:00 (00:00)Jasmine OslerJasmine Osler
130 Indie Game: The Movie Jun 12, 2012 $9.99N/A (N/A)200,000 .. 500,0000%00:00 (00:00)BlinkWorks MediaBlinkWorks Media
131 Meditation 2 ~ Wisdom and Christian Art May 24, 2020 $3.99N/A (N/A)0 .. 20,000NAN%00:00 (00:00)Kooly From ParisKooly From Paris
132 Hedera May 21, 2020 $2.99N/A (N/A)0 .. 20,000NAN%00:00 (00:00)Aiaz MarxAiaz Marx
133 Don't Kill the Cow Apr 14, 2012 FreeN/A (N/A)0 .. 20,000NAN%00:00 (00:00)James Earl Cox IIIJames Earl Cox III
134 Neversong May 20, 2020 $14.99N/A (N/A)0 .. 20,000NAN%00:00 (00:00)Atmos Games, Serenity ForgeSerenity Forge
135 Portal 2 - The Final Hours May 17, 2011 $1.99N/A (N/A)100,000 .. 200,0000%00:00 (00:00)Geoff KeighleyGeoff Keighley
136 Left on Read May 19, 2020 FreeN/A (N/A)50,000 .. 100,000NAN%00:00 (00:00)Weston Bell-GeddesSpookulele Games, Silver Side Studios
137 a new life. May 15, 2020 $2.99N/A (N/A)0 .. 20,000NAN%00:00 (00:00)Angela HeAngela He
138 Amends VR May 13, 2020 FreeN/A (N/A)0 .. 20,000NAN%00:00 (00:00)Amends Team Amends Team
139 Lost Brothers Aug 18, 2020 $8.99N/A (N/A)0 .. 20,000NAN%00:00 (00:00)BitLightBitLight
140 CHANGE: A Homeless Survival Experience May 1, 2020 $14.99N/A (N/A)0 .. 20,000100%15:47 (15:47)Delve InteractiveDelve Interactive
Overview

Emotional

Games with this tag: 140
Average userscore: N/A%
Average metascore: 77.53%
Average playtime: 20:58
Total copies owned: 20,862,000
Average price: $11.8
Help

Owners: Estimated number of people owning this game. The number might be way too small for new releases and sometimes way too big for games that had free weekend event recently. Read more on About page.

Playtime: Average hours played in total per person that have actually launched this game since March 2009. This time is calculated for the whole lifetime, not for the particular year.

Average score: Average users and metacritic score for all games with this score assigned.

Average playtime: Average lifetime playtime for all games where this data is available.

Games in this genre: Self-explaining - number of games with this tag. Only inculdes games with sales data available.

Total copies owned: Refers to total copies of games with this tag acquired by users for the lifetime. Includes copies sold, downloaded for free and given out.

This number might be too small for recently released games or too big for games that had a free weekend in the last couple of months.

Graphs

Login required.

Please register or log in to see this information.

Login required.

Please register or log in to see this information.